sensor_id;sensor_type;location;lat;lon;timestamp;P1;durP1;ratioP1;P2;durP2;ratioP2
4694;SDS011;2361;49.540;8.390;2023-07-13T00:01:55;1.23;;;1.13;;
4694;SDS011;2361;49.540;8.390;2023-07-13T00:04:22;2.10;;;0.97;;
4694;SDS011;2361;49.540;8.390;2023-07-13T00:06:55;0.80;;;0.80;;
4694;SDS011;2361;49.540;8.390;2023-07-13T00:09:22;1.00;;;0.93;;
4694;SDS011;2361;49.540;8.390;2023-07-13T00:11:51;0.90;;;0.90;;
4694;SDS011;2361;49.540;8.390;2023-07-13T00:14:21;0.83;;;0.83;;
4694;SDS011;2361;49.540;8.390;2023-07-13T00:16:49;0.80;;;0.80;;
4694;SDS011;2361;49.540;8.390;2023-07-13T00:19:16;0.87;;;0.87;;
4694;SDS011;2361;49.540;8.390;2023-07-13T00:21:43;1.70;;;0.77;;
4694;SDS011;2361;49.540;8.390;2023-07-13T00:24:11;2.63;;;1.20;;
4694;SDS011;2361;49.540;8.390;2023-07-13T00:26:44;0.90;;;0.90;;
4694;SDS011;2361;49.540;8.390;2023-07-13T00:29:12;1.23;;;1.00;;
4694;SDS011;2361;49.540;8.390;2023-07-13T00:31:43;0.83;;;0.83;;
4694;SDS011;2361;49.540;8.390;2023-07-13T00:34:11;0.90;;;0.90;;
4694;SDS011;2361;49.540;8.390;2023-07-13T00:36:38;2.07;;;1.20;;
4694;SDS011;2361;49.540;8.390;2023-07-13T00:39:05;0.70;;;0.70;;
4694;SDS011;2361;49.540;8.390;2023-07-13T00:41:32;1.43;;;0.90;;
4694;SDS011;2361;49.540;8.390;2023-07-13T00:43:59;0.90;;;0.90;;
4694;SDS011;2361;49.540;8.390;2023-07-13T00:46:28;1.00;;;1.00;;
4694;SDS011;2361;49.540;8.390;2023-07-13T00:49:01;1.27;;;1.17;;
4694;SDS011;2361;49.540;8.390;2023-07-13T00:51:43;1.07;;;0.97;;
4694;SDS011;2361;49.540;8.390;2023-07-13T00:54:18;0.90;;;0.90;;
4694;SDS011;2361;49.540;8.390;2023-07-13T00:56:50;1.00;;;0.90;;
4694;SDS011;2361;49.540;8.390;2023-07-13T00:59:23;0.80;;;0.80;;
4694;SDS011;2361;49.540;8.390;2023-07-13T01:01:51;3.53;;;1.23;;
4694;SDS011;2361;49.540;8.390;2023-07-13T01:04:19;1.00;;;1.00;;
4694;SDS011;2361;49.540;8.390;2023-07-13T01:06:46;1.13;;;1.13;;
4694;SDS011;2361;49.540;8.390;2023-07-13T01:09:14;1.07;;;0.80;;
4694;SDS011;2361;49.540;8.390;2023-07-13T01:11:42;6.97;;;1.40;;
4694;SDS011;2361;49.540;8.390;2023-07-13T01:14:11;7.20;;;1.00;;
4694;SDS011;2361;49.540;8.390;2023-07-13T01:16:39;1.17;;;1.17;;
4694;SDS011;2361;49.540;8.390;2023-07-13T01:19:52;1.23;;;1.17;;
4694;SDS011;2361;49.540;8.390;2023-07-13T01:22:04;1.23;;;1.23;;
4694;SDS011;2361;49.540;8.390;2023-07-13T01:24:35;1.27;;;1.17;;
4694;SDS011;2361;49.540;8.390;2023-07-13T01:27:03;1.50;;;1.27;;
4694;SDS011;2361;49.540;8.390;2023-07-13T01:29:33;1.30;;;1.20;;
4694;SDS011;2361;49.540;8.390;2023-07-13T01:32:09;1.00;;;1.00;;
4694;SDS011;2361;49.540;8.390;2023-07-13T01:34:41;1.87;;;1.40;;
4694;SDS011;2361;49.540;8.390;2023-07-13T01:37:11;2.73;;;1.27;;
4694;SDS011;2361;49.540;8.390;2023-07-13T01:39:38;0.90;;;0.90;;
4694;SDS011;2361;49.540;8.390;2023-07-13T01:42:05;1.57;;;1.03;;
4694;SDS011;2361;49.540;8.390;2023-07-13T01:44:33;7.70;;;1.50;;
4694;SDS011;2361;49.540;8.390;2023-07-13T01:47:01;1.87;;;1.13;;
4694;SDS011;2361;49.540;8.390;2023-07-13T01:49:29;1.00;;;1.00;;
4694;SDS011;2361;49.540;8.390;2023-07-13T01:51:56;2.00;;;1.40;;
4694;SDS011;2361;49.540;8.390;2023-07-13T01:54:23;1.20;;;1.07;;
4694;SDS011;2361;49.540;8.390;2023-07-13T01:56:50;1.10;;;1.10;;
4694;SDS011;2361;49.540;8.390;2023-07-13T01:59:17;0.97;;;0.97;;
4694;SDS011;2361;49.540;8.390;2023-07-13T02:01:44;1.33;;;1.20;;
4694;SDS011;2361;49.540;8.390;2023-07-13T02:04:11;1.00;;;1.00;;
4694;SDS011;2361;49.540;8.390;2023-07-13T02:06:38;1.47;;;1.33;;
4694;SDS011;2361;49.540;8.390;2023-07-13T02:09:05;0.90;;;0.90;;
4694;SDS011;2361;49.540;8.390;2023-07-13T02:11:32;1.00;;;1.00;;
4694;SDS011;2361;49.540;8.390;2023-07-13T02:14:00;1.30;;;1.20;;
4694;SDS011;2361;49.540;8.390;2023-07-13T02:16:29;1.93;;;1.07;;
4694;SDS011;2361;49.540;8.390;2023-07-13T02:18:57;1.00;;;1.00;;
4694;SDS011;2361;49.540;8.390;2023-07-13T02:21:24;1.10;;;1.00;;
4694;SDS011;2361;49.540;8.390;2023-07-13T02:23:51;1.33;;;1.10;;
4694;SDS011;2361;49.540;8.390;2023-07-13T02:26:18;0.80;;;0.80;;
4694;SDS011;2361;49.540;8.390;2023-07-13T02:28:46;3.10;;;0.97;;
4694;SDS011;2361;49.540;8.390;2023-07-13T02:31:14;1.07;;;1.03;;
4694;SDS011;2361;49.540;8.390;2023-07-13T02:33:42;0.70;;;0.70;;
4694;SDS011;2361;49.540;8.390;2023-07-13T02:36:09;1.10;;;1.10;;
4694;SDS011;2361;49.540;8.390;2023-07-13T02:38:38;1.10;;;1.10;;
4694;SDS011;2361;49.540;8.390;2023-07-13T02:41:06;4.20;;;1.47;;
4694;SDS011;2361;49.540;8.390;2023-07-13T02:43:35;1.17;;;1.17;;
4694;SDS011;2361;49.540;8.390;2023-07-13T02:46:03;0.90;;;0.90;;
4694;SDS011;2361;49.540;8.390;2023-07-13T02:48:34;0.97;;;0.90;;
4694;SDS011;2361;49.540;8.390;2023-07-13T02:51:01;0.80;;;0.77;;
4694;SDS011;2361;49.540;8.390;2023-07-13T02:53:29;1.03;;;0.93;;
4694;SDS011;2361;49.540;8.390;2023-07-13T02:55:56;1.30;;;1.20;;
4694;SDS011;2361;49.540;8.390;2023-07-13T02:58:23;0.97;;;0.97;;
4694;SDS011;2361;49.540;8.390;2023-07-13T03:00:50;0.90;;;0.90;;
4694;SDS011;2361;49.540;8.390;2023-07-13T03:03:18;0.80;;;0.80;;
4694;SDS011;2361;49.540;8.390;2023-07-13T03:05:45;1.00;;;1.00;;
4694;SDS011;2361;49.540;8.390;2023-07-13T03:08:17;2.53;;;1.33;;
4694;SDS011;2361;49.540;8.390;2023-07-13T03:10:44;0.97;;;0.97;;
4694;SDS011;2361;49.540;8.390;2023-07-13T03:13:11;1.83;;;0.87;;
4694;SDS011;2361;49.540;8.390;2023-07-13T03:15:38;0.93;;;0.93;;
4694;SDS011;2361;49.540;8.390;2023-07-13T03:18:05;1.00;;;1.00;;
4694;SDS011;2361;49.540;8.390;2023-07-13T03:20:33;1.00;;;1.00;;
4694;SDS011;2361;49.540;8.390;2023-07-13T03:23:00;1.20;;;1.20;;
4694;SDS011;2361;49.540;8.390;2023-07-13T03:25:30;1.13;;;1.07;;
4694;SDS011;2361;49.540;8.390;2023-07-13T03:27:57;0.80;;;0.80;;
4694;SDS011;2361;49.540;8.390;2023-07-13T03:30:24;1.17;;;1.13;;
4694;SDS011;2361;49.540;8.390;2023-07-13T03:32:51;1.57;;;1.47;;
4694;SDS011;2361;49.540;8.390;2023-07-13T03:35:18;1.77;;;1.60;;
4694;SDS011;2361;49.540;8.390;2023-07-13T03:37:45;1.30;;;1.30;;
4694;SDS011;2361;49.540;8.390;2023-07-13T03:40:12;1.67;;;1.57;;
4694;SDS011;2361;49.540;8.390;2023-07-13T03:42:40;2.23;;;1.80;;
4694;SDS011;2361;49.540;8.390;2023-07-13T03:45:07;1.87;;;1.60;;
4694;SDS011;2361;49.540;8.390;2023-07-13T03:47:34;1.67;;;1.57;;
4694;SDS011;2361;49.540;8.390;2023-07-13T03:50:01;1.67;;;1.57;;
4694;SDS011;2361;49.540;8.390;2023-07-13T03:52:29;1.70;;;1.47;;
4694;SDS011;2361;49.540;8.390;2023-07-13T03:54:56;1.60;;;1.50;;
4694;SDS011;2361;49.540;8.390;2023-07-13T03:57:23;3.23;;;1.50;;
4694;SDS011;2361;49.540;8.390;2023-07-13T03:59:50;1.60;;;1.50;;
4694;SDS011;2361;49.540;8.390;2023-07-13T04:02:17;1.67;;;1.23;;
4694;SDS011;2361;49.540;8.390;2023-07-13T04:04:45;2.00;;;1.57;;
4694;SDS011;2361;49.540;8.390;2023-07-13T04:07:12;1.50;;;1.40;;
4694;SDS011;2361;49.540;8.390;2023-07-13T04:09:39;1.37;;;1.23;;
4694;SDS011;2361;49.540;8.390;2023-07-13T04:12:06;1.73;;;1.53;;
4694;SDS011;2361;49.540;8.390;2023-07-13T04:14:33;1.30;;;1.20;;
4694;SDS011;2361;49.540;8.390;2023-07-13T04:17:00;1.70;;;1.60;;
4694;SDS011;2361;49.540;8.390;2023-07-13T04:19:28;1.40;;;1.30;;
4694;SDS011;2361;49.540;8.390;2023-07-13T04:21:55;1.27;;;1.23;;
4694;SDS011;2361;49.540;8.390;2023-07-13T04:24:22;2.23;;;1.90;;
4694;SDS011;2361;49.540;8.390;2023-07-13T04:26:49;2.07;;;1.97;;
4694;SDS011;2361;49.540;8.390;2023-07-13T04:29:16;1.17;;;1.17;;
4694;SDS011;2361;49.540;8.390;2023-07-13T04:31:43;1.30;;;1.30;;
4694;SDS011;2361;49.540;8.390;2023-07-13T04:34:10;1.40;;;1.30;;
4694;SDS011;2361;49.540;8.390;2023-07-13T04:36:37;1.60;;;1.50;;
4694;SDS011;2361;49.540;8.390;2023-07-13T04:39:04;2.83;;;1.77;;
4694;SDS011;2361;49.540;8.390;2023-07-13T04:41:31;3.03;;;2.03;;
4694;SDS011;2361;49.540;8.390;2023-07-13T04:43:58;1.60;;;1.50;;
4694;SDS011;2361;49.540;8.390;2023-07-13T04:46:25;2.17;;;2.07;;
4694;SDS011;2361;49.540;8.390;2023-07-13T04:48:52;1.90;;;1.80;;
4694;SDS011;2361;49.540;8.390;2023-07-13T04:51:20;4.30;;;2.03;;
4694;SDS011;2361;49.540;8.390;2023-07-13T04:53:47;1.90;;;1.80;;
4694;SDS011;2361;49.540;8.390;2023-07-13T04:56:14;2.07;;;1.83;;
4694;SDS011;2361;49.540;8.390;2023-07-13T04:58:41;9.40;;;2.57;;
4694;SDS011;2361;49.540;8.390;2023-07-13T05:01:09;2.60;;;2.40;;
4694;SDS011;2361;49.540;8.390;2023-07-13T05:03:36;2.10;;;1.90;;
4694;SDS011;2361;49.540;8.390;2023-07-13T05:06:04;2.07;;;1.87;;
4694;SDS011;2361;49.540;8.390;2023-07-13T05:08:36;2.80;;;2.03;;
4694;SDS011;2361;49.540;8.390;2023-07-13T05:11:03;9.83;;;2.10;;
4694;SDS011;2361;49.540;8.390;2023-07-13T05:13:32;2.23;;;1.80;;
4694;SDS011;2361;49.540;8.390;2023-07-13T05:16:00;2.57;;;2.07;;
4694;SDS011;2361;49.540;8.390;2023-07-13T05:18:29;2.83;;;1.77;;
4694;SDS011;2361;49.540;8.390;2023-07-13T05:20:58;6.33;;;2.30;;
4694;SDS011;2361;49.540;8.390;2023-07-13T05:23:27;3.50;;;1.93;;
4694;SDS011;2361;49.540;8.390;2023-07-13T05:25:54;1.80;;;1.70;;
4694;SDS011;2361;49.540;8.390;2023-07-13T05:28:22;1.50;;;1.40;;
4694;SDS011;2361;49.540;8.390;2023-07-13T05:30:49;2.43;;;2.10;;
4694;SDS011;2361;49.540;8.390;2023-07-13T05:33:17;1.90;;;1.80;;
4694;SDS011;2361;49.540;8.390;2023-07-13T05:35:44;3.83;;;2.30;;
4694;SDS011;2361;49.540;8.390;2023-07-13T05:38:11;2.10;;;1.90;;
4694;SDS011;2361;49.540;8.390;2023-07-13T05:40:39;1.57;;;1.47;;
4694;SDS011;2361;49.540;8.390;2023-07-13T05:43:09;1.87;;;1.50;;
4694;SDS011;2361;49.540;8.390;2023-07-13T05:45:36;3.00;;;2.00;;
4694;SDS011;2361;49.540;8.390;2023-07-13T05:48:04;3.20;;;2.10;;
4694;SDS011;2361;49.540;8.390;2023-07-13T05:50:31;2.70;;;2.50;;
4694;SDS011;2361;49.540;8.390;2023-07-13T05:52:58;2.90;;;1.77;;
4694;SDS011;2361;49.540;8.390;2023-07-13T05:55:25;2.17;;;1.97;;
4694;SDS011;2361;49.540;8.390;2023-07-13T05:57:52;1.70;;;1.60;;
4694;SDS011;2361;49.540;8.390;2023-07-13T06:00:19;1.97;;;1.87;;
4694;SDS011;2361;49.540;8.390;2023-07-13T06:02:47;2.07;;;1.93;;
4694;SDS011;2361;49.540;8.390;2023-07-13T06:05:14;2.40;;;1.80;;
4694;SDS011;2361;49.540;8.390;2023-07-13T06:07:41;1.97;;;1.77;;
4694;SDS011;2361;49.540;8.390;2023-07-13T06:10:08;1.87;;;1.50;;
4694;SDS011;2361;49.540;8.390;2023-07-13T06:12:36;2.30;;;2.03;;
4694;SDS011;2361;49.540;8.390;2023-07-13T06:15:03;1.57;;;1.47;;
4694;SDS011;2361;49.540;8.390;2023-07-13T06:17:30;2.20;;;2.00;;
4694;SDS011;2361;49.540;8.390;2023-07-13T06:19:57;1.40;;;1.40;;
4694;SDS011;2361;49.540;8.390;2023-07-13T06:22:24;1.70;;;1.50;;
4694;SDS011;2361;49.540;8.390;2023-07-13T06:24:51;1.20;;;1.10;;
4694;SDS011;2361;49.540;8.390;2023-07-13T06:27:18;0.90;;;0.90;;
4694;SDS011;2361;49.540;8.390;2023-07-13T06:29:45;1.90;;;1.53;;
4694;SDS011;2361;49.540;8.390;2023-07-13T06:32:13;1.50;;;1.17;;
4694;SDS011;2361;49.540;8.390;2023-07-13T06:34:40;2.50;;;1.73;;
4694;SDS011;2361;49.540;8.390;2023-07-13T06:37:08;1.30;;;1.23;;
4694;SDS011;2361;49.540;8.390;2023-07-13T06:39:36;2.30;;;1.50;;
4694;SDS011;2361;49.540;8.390;2023-07-13T06:42:03;1.67;;;1.40;;
4694;SDS011;2361;49.540;8.390;2023-07-13T06:44:32;2.70;;;1.30;;
4694;SDS011;2361;49.540;8.390;2023-07-13T06:46:59;1.23;;;1.23;;
4694;SDS011;2361;49.540;8.390;2023-07-13T06:49:26;5.60;;;1.80;;
4694;SDS011;2361;49.540;8.390;2023-07-13T06:51:53;1.80;;;1.70;;
4694;SDS011;2361;49.540;8.390;2023-07-13T06:54:20;3.17;;;1.73;;
4694;SDS011;2361;49.540;8.390;2023-07-13T06:56:47;1.30;;;1.20;;
4694;SDS011;2361;49.540;8.390;2023-07-13T06:59:14;1.63;;;1.53;;
4694;SDS011;2361;49.540;8.390;2023-07-13T07:01:41;1.40;;;1.30;;
4694;SDS011;2361;49.540;8.390;2023-07-13T07:04:08;2.10;;;1.33;;
4694;SDS011;2361;49.540;8.390;2023-07-13T07:06:35;1.30;;;1.30;;
4694;SDS011;2361;49.540;8.390;2023-07-13T07:09:02;1.20;;;1.20;;
4694;SDS011;2361;49.540;8.390;2023-07-13T07:11:29;0.97;;;0.97;;
4694;SDS011;2361;49.540;8.390;2023-07-13T07:13:56;1.30;;;1.30;;
4694;SDS011;2361;49.540;8.390;2023-07-13T07:16:24;1.10;;;0.93;;
4694;SDS011;2361;49.540;8.390;2023-07-13T07:18:51;1.40;;;1.10;;
4694;SDS011;2361;49.540;8.390;2023-07-13T07:21:18;1.40;;;1.27;;
4694;SDS011;2361;49.540;8.390;2023-07-13T07:23:46;1.33;;;1.23;;
4694;SDS011;2361;49.540;8.390;2023-07-13T07:26:13;1.23;;;0.80;;
4694;SDS011;2361;49.540;8.390;2023-07-13T07:28:40;1.90;;;1.00;;
4694;SDS011;2361;49.540;8.390;2023-07-13T07:31:11;0.80;;;0.80;;
4694;SDS011;2361;49.540;8.390;2023-07-13T07:33:41;0.97;;;0.97;;
4694;SDS011;2361;49.540;8.390;2023-07-13T07:36:09;1.23;;;1.23;;
4694;SDS011;2361;49.540;8.390;2023-07-13T07:38:40;1.70;;;1.20;;
4694;SDS011;2361;49.540;8.390;2023-07-13T07:41:07;1.40;;;1.20;;
4694;SDS011;2361;49.540;8.390;2023-07-13T07:43:37;1.00;;;1.00;;
4694;SDS011;2361;49.540;8.390;2023-07-13T07:46:04;1.10;;;1.10;;
4694;SDS011;2361;49.540;8.390;2023-07-13T07:48:32;1.50;;;1.20;;
4694;SDS011;2361;49.540;8.390;2023-07-13T07:50:59;2.33;;;1.37;;
4694;SDS011;2361;49.540;8.390;2023-07-13T07:53:26;1.00;;;1.00;;
4694;SDS011;2361;49.540;8.390;2023-07-13T07:55:53;1.30;;;1.00;;
4694;SDS011;2361;49.540;8.390;2023-07-13T07:58:23;0.90;;;0.90;;
4694;SDS011;2361;49.540;8.390;2023-07-13T08:00:53;2.00;;;1.00;;
4694;SDS011;2361;49.540;8.390;2023-07-13T08:03:23;0.80;;;0.80;;
4694;SDS011;2361;49.540;8.390;2023-07-13T08:05:53;1.27;;;0.70;;
4694;SDS011;2361;49.540;8.390;2023-07-13T08:08:23;1.27;;;0.80;;
4694;SDS011;2361;49.540;8.390;2023-07-13T08:10:50;1.63;;;0.80;;
4694;SDS011;2361;49.540;8.390;2023-07-13T08:13:21;1.53;;;0.83;;
4694;SDS011;2361;49.540;8.390;2023-07-13T08:15:48;0.80;;;0.80;;
4694;SDS011;2361;49.540;8.390;2023-07-13T08:18:16;0.90;;;0.90;;
4694;SDS011;2361;49.540;8.390;2023-07-13T08:20:43;0.80;;;0.80;;
4694;SDS011;2361;49.540;8.390;2023-07-13T08:23:11;0.97;;;0.90;;
4694;SDS011;2361;49.540;8.390;2023-07-13T08:25:38;1.10;;;1.00;;
4694;SDS011;2361;49.540;8.390;2023-07-13T08:28:05;1.20;;;1.10;;
4694;SDS011;2361;49.540;8.390;2023-07-13T08:30:32;0.90;;;0.90;;
4694;SDS011;2361;49.540;8.390;2023-07-13T08:32:59;0.93;;;0.93;;
4694;SDS011;2361;49.540;8.390;2023-07-13T08:35:26;1.00;;;1.00;;
4694;SDS011;2361;49.540;8.390;2023-07-13T08:37:53;1.10;;;1.10;;
4694;SDS011;2361;49.540;8.390;2023-07-13T08:40:22;0.80;;;0.80;;
4694;SDS011;2361;49.540;8.390;2023-07-13T08:42:54;0.87;;;0.87;;
4694;SDS011;2361;49.540;8.390;2023-07-13T08:45:43;0.97;;;0.90;;
4694;SDS011;2361;49.540;8.390;2023-07-13T08:48:53;1.00;;;1.00;;
4694;SDS011;2361;49.540;8.390;2023-07-13T08:54:21;1.00;;;1.00;;
4694;SDS011;2361;49.540;8.390;2023-07-13T08:56:58;1.10;;;1.10;;
4694;SDS011;2361;49.540;8.390;2023-07-13T08:59:30;1.00;;;1.00;;
4694;SDS011;2361;49.540;8.390;2023-07-13T09:02:05;2.07;;;1.23;;
4694;SDS011;2361;49.540;8.390;2023-07-13T09:07:50;1.20;;;1.10;;
4694;SDS011;2361;49.540;8.390;2023-07-13T09:10:37;0.70;;;0.70;;
4694;SDS011;2361;49.540;8.390;2023-07-13T09:15:46;0.80;;;0.80;;
4694;SDS011;2361;49.540;8.390;2023-07-13T09:18:23;1.83;;;1.00;;
4694;SDS011;2361;49.540;8.390;2023-07-13T09:21:08;0.90;;;0.90;;
4694;SDS011;2361;49.540;8.390;2023-07-13T09:23:40;0.90;;;0.90;;
4694;SDS011;2361;49.540;8.390;2023-07-13T09:28:43;0.73;;;0.73;;
4694;SDS011;2361;49.540;8.390;2023-07-13T09:31:43;1.93;;;0.90;;
4694;SDS011;2361;49.540;8.390;2023-07-13T09:34:16;0.70;;;0.70;;
4694;SDS011;2361;49.540;8.390;2023-07-13T09:36:43;2.60;;;0.90;;
4694;SDS011;2361;49.540;8.390;2023-07-13T09:39:15;1.50;;;1.10;;
4694;SDS011;2361;49.540;8.390;2023-07-13T09:45:01;1.83;;;0.70;;
4694;SDS011;2361;49.540;8.390;2023-07-13T09:47:30;0.90;;;0.60;;
4694;SDS011;2361;49.540;8.390;2023-07-13T09:50:05;1.80;;;1.30;;
4694;SDS011;2361;49.540;8.390;2023-07-13T09:52:41;0.90;;;0.90;;
4694;SDS011;2361;49.540;8.390;2023-07-13T09:55:45;0.73;;;0.60;;
4694;SDS011;2361;49.540;8.390;2023-07-13T10:01:02;0.97;;;0.97;;
4694;SDS011;2361;49.540;8.390;2023-07-13T10:03:35;0.80;;;0.80;;
4694;SDS011;2361;49.540;8.390;2023-07-13T10:06:11;0.80;;;0.80;;
4694;SDS011;2361;49.540;8.390;2023-07-13T10:08:38;0.60;;;0.60;;
4694;SDS011;2361;49.540;8.390;2023-07-13T10:11:16;0.67;;;0.67;;
4694;SDS011;2361;49.540;8.390;2023-07-13T10:13:54;1.80;;;0.77;;
4694;SDS011;2361;49.540;8.390;2023-07-13T10:16:28;0.90;;;0.90;;
4694;SDS011;2361;49.540;8.390;2023-07-13T10:19:02;1.40;;;1.07;;
4694;SDS011;2361;49.540;8.390;2023-07-13T10:21:39;0.80;;;0.80;;
4694;SDS011;2361;49.540;8.390;2023-07-13T10:24:19;0.70;;;0.70;;
4694;SDS011;2361;49.540;8.390;2023-07-13T10:27:33;1.03;;;1.03;;
4694;SDS011;2361;49.540;8.390;2023-07-13T10:29:48;1.17;;;0.73;;
4694;SDS011;2361;49.540;8.390;2023-07-13T10:32:21;0.60;;;0.60;;
4694;SDS011;2361;49.540;8.390;2023-07-13T10:34:51;0.80;;;0.80;;
4694;SDS011;2361;49.540;8.390;2023-07-13T10:37:25;1.63;;;0.90;;
4694;SDS011;2361;49.540;8.390;2023-07-13T10:39:56;0.80;;;0.70;;
4694;SDS011;2361;49.540;8.390;2023-07-13T10:42:32;0.97;;;0.97;;
4694;SDS011;2361;49.540;8.390;2023-07-13T10:45:13;1.40;;;0.83;;
4694;SDS011;2361;49.540;8.390;2023-07-13T10:47:44;1.10;;;1.00;;
4694;SDS011;2361;49.540;8.390;2023-07-13T10:50:23;8.90;;;3.57;;
4694;SDS011;2361;49.540;8.390;2023-07-13T10:52:54;1.10;;;1.10;;
4694;SDS011;2361;49.540;8.390;2023-07-13T10:55:35;0.97;;;0.90;;
4694;SDS011;2361;49.540;8.390;2023-07-13T10:58:20;1.03;;;1.00;;
4694;SDS011;2361;49.540;8.390;2023-07-13T11:01:10;1.07;;;0.77;;
4694;SDS011;2361;49.540;8.390;2023-07-13T11:03:49;0.83;;;0.83;;
4694;SDS011;2361;49.540;8.390;2023-07-13T11:11:46;2.47;;;1.00;;
4694;SDS011;2361;49.540;8.390;2023-07-13T11:20:40;0.80;;;0.80;;
4694;SDS011;2361;49.540;8.390;2023-07-13T11:25:42;0.73;;;0.73;;
4694;SDS011;2361;49.540;8.390;2023-07-13T11:30:38;0.80;;;0.80;;
4694;SDS011;2361;49.540;8.390;2023-07-13T11:36:03;2.00;;;0.97;;
4694;SDS011;2361;49.540;8.390;2023-07-13T11:41:16;1.03;;;1.00;;
4694;SDS011;2361;49.540;8.390;2023-07-13T11:43:53;0.90;;;0.83;;
4694;SDS011;2361;49.540;8.390;2023-07-13T11:46:26;1.10;;;0.87;;
4694;SDS011;2361;49.540;8.390;2023-07-13T11:48:54;1.90;;;0.97;;
4694;SDS011;2361;49.540;8.390;2023-07-13T11:51:22;0.80;;;0.80;;
4694;SDS011;2361;49.540;8.390;2023-07-13T11:53:54;1.23;;;0.90;;
4694;SDS011;2361;49.540;8.390;2023-07-13T11:56:24;0.70;;;0.70;;
4694;SDS011;2361;49.540;8.390;2023-07-13T11:58:53;0.50;;;0.50;;
4694;SDS011;2361;49.540;8.390;2023-07-13T12:01:26;0.70;;;0.70;;
4694;SDS011;2361;49.540;8.390;2023-07-13T12:04:02;0.80;;;0.80;;
4694;SDS011;2361;49.540;8.390;2023-07-13T12:06:32;0.83;;;0.83;;
4694;SDS011;2361;49.540;8.390;2023-07-13T12:09:10;1.00;;;0.97;;
4694;SDS011;2361;49.540;8.390;2023-07-13T12:11:42;0.80;;;0.80;;
4694;SDS011;2361;49.540;8.390;2023-07-13T12:14:16;2.60;;;0.90;;
4694;SDS011;2361;49.540;8.390;2023-07-13T12:16:44;1.00;;;1.00;;
4694;SDS011;2361;49.540;8.390;2023-07-13T12:19:23;1.03;;;0.80;;
4694;SDS011;2361;49.540;8.390;2023-07-13T12:21:57;2.50;;;0.87;;
4694;SDS011;2361;49.540;8.390;2023-07-13T12:24:25;1.07;;;1.07;;
4694;SDS011;2361;49.540;8.390;2023-07-13T12:27:03;1.03;;;1.00;;
4694;SDS011;2361;49.540;8.390;2023-07-13T12:29:31;0.87;;;0.87;;
4694;SDS011;2361;49.540;8.390;2023-07-13T12:31:59;1.10;;;1.00;;
4694;SDS011;2361;49.540;8.390;2023-07-13T12:34:26;0.90;;;0.90;;
4694;SDS011;2361;49.540;8.390;2023-07-13T12:37:03;0.63;;;0.63;;
4694;SDS011;2361;49.540;8.390;2023-07-13T12:39:38;0.70;;;0.70;;
4694;SDS011;2361;49.540;8.390;2023-07-13T12:42:21;1.03;;;0.80;;
4694;SDS011;2361;49.540;8.390;2023-07-13T12:45:02;2.83;;;1.07;;
4694;SDS011;2361;49.540;8.390;2023-07-13T12:47:57;0.93;;;0.93;;
4694;SDS011;2361;49.540;8.390;2023-07-13T12:51:08;0.97;;;0.97;;
4694;SDS011;2361;49.540;8.390;2023-07-13T12:53:40;1.10;;;1.07;;
4694;SDS011;2361;49.540;8.390;2023-07-13T12:56:13;1.27;;;0.87;;
4694;SDS011;2361;49.540;8.390;2023-07-13T12:58:49;2.43;;;1.20;;
4694;SDS011;2361;49.540;8.390;2023-07-13T13:01:26;1.23;;;1.07;;
4694;SDS011;2361;49.540;8.390;2023-07-13T13:03:55;1.07;;;1.07;;
4694;SDS011;2361;49.540;8.390;2023-07-13T13:06:24;1.17;;;1.07;;
4694;SDS011;2361;49.540;8.390;2023-07-13T13:08:55;1.27;;;0.90;;
4694;SDS011;2361;49.540;8.390;2023-07-13T13:11:28;1.00;;;1.00;;
4694;SDS011;2361;49.540;8.390;2023-07-13T13:13:57;1.63;;;1.30;;
4694;SDS011;2361;49.540;8.390;2023-07-13T13:16:32;0.97;;;0.80;;
4694;SDS011;2361;49.540;8.390;2023-07-13T13:19:15;0.80;;;0.80;;
4694;SDS011;2361;49.540;8.390;2023-07-13T13:21:48;0.90;;;0.90;;
4694;SDS011;2361;49.540;8.390;2023-07-13T13:24:20;0.63;;;0.63;;
4694;SDS011;2361;49.540;8.390;2023-07-13T13:26:50;0.90;;;0.90;;
4694;SDS011;2361;49.540;8.390;2023-07-13T13:29:20;2.30;;;1.00;;
4694;SDS011;2361;49.540;8.390;2023-07-13T13:31:55;0.87;;;0.80;;
4694;SDS011;2361;49.540;8.390;2023-07-13T13:34:23;0.90;;;0.90;;
4694;SDS011;2361;49.540;8.390;2023-07-13T13:36:52;0.73;;;0.70;;
4694;SDS011;2361;49.540;8.390;2023-07-13T13:39:25;0.73;;;0.73;;
4694;SDS011;2361;49.540;8.390;2023-07-13T13:42:00;1.93;;;1.33;;
4694;SDS011;2361;49.540;8.390;2023-07-13T13:44:27;0.87;;;0.87;;
4694;SDS011;2361;49.540;8.390;2023-07-13T13:46:55;1.33;;;1.00;;
4694;SDS011;2361;49.540;8.390;2023-07-13T13:49:25;2.83;;;0.70;;
4694;SDS011;2361;49.540;8.390;2023-07-13T13:51:53;0.80;;;0.80;;
4694;SDS011;2361;49.540;8.390;2023-07-13T13:54:21;1.27;;;1.00;;
4694;SDS011;2361;49.540;8.390;2023-07-13T13:56:52;1.00;;;1.00;;
4694;SDS011;2361;49.540;8.390;2023-07-13T13:59:19;0.83;;;0.83;;
4694;SDS011;2361;49.540;8.390;2023-07-13T14:01:46;1.30;;;1.10;;
4694;SDS011;2361;49.540;8.390;2023-07-13T14:04:17;2.00;;;1.20;;
4694;SDS011;2361;49.540;8.390;2023-07-13T14:06:47;4.97;;;1.20;;
4694;SDS011;2361;49.540;8.390;2023-07-13T14:09:16;1.10;;;1.10;;
4694;SDS011;2361;49.540;8.390;2023-07-13T14:11:45;1.10;;;1.10;;
4694;SDS011;2361;49.540;8.390;2023-07-13T14:14:20;1.00;;;0.90;;
4694;SDS011;2361;49.540;8.390;2023-07-13T14:16:49;1.47;;;1.27;;
4694;SDS011;2361;49.540;8.390;2023-07-13T14:19:20;0.80;;;0.80;;
4694;SDS011;2361;49.540;8.390;2023-07-13T14:21:47;2.80;;;1.40;;
4694;SDS011;2361;49.540;8.390;2023-07-13T14:24:15;0.90;;;0.90;;
4694;SDS011;2361;49.540;8.390;2023-07-13T14:26:42;0.80;;;0.80;;
4694;SDS011;2361;49.540;8.390;2023-07-13T14:29:13;0.60;;;0.60;;
4694;SDS011;2361;49.540;8.390;2023-07-13T14:31:45;0.80;;;0.80;;
4694;SDS011;2361;49.540;8.390;2023-07-13T14:34:12;0.80;;;0.80;;
4694;SDS011;2361;49.540;8.390;2023-07-13T14:36:41;0.83;;;0.83;;
4694;SDS011;2361;49.540;8.390;2023-07-13T14:39:19;0.93;;;0.93;;
4694;SDS011;2361;49.540;8.390;2023-07-13T14:41:52;1.20;;;1.00;;
4694;SDS011;2361;49.540;8.390;2023-07-13T14:44:22;0.80;;;0.80;;
4694;SDS011;2361;49.540;8.390;2023-07-13T14:46:56;1.10;;;1.10;;
4694;SDS011;2361;49.540;8.390;2023-07-13T14:49:39;0.97;;;0.97;;
4694;SDS011;2361;49.540;8.390;2023-07-13T14:52:17;0.80;;;0.80;;
4694;SDS011;2361;49.540;8.390;2023-07-13T14:54:46;0.80;;;0.80;;
4694;SDS011;2361;49.540;8.390;2023-07-13T14:57:14;5.77;;;4.60;;
4694;SDS011;2361;49.540;8.390;2023-07-13T14:59:47;4.47;;;3.70;;
4694;SDS011;2361;49.540;8.390;2023-07-13T15:04:45;1.20;;;1.10;;
4694;SDS011;2361;49.540;8.390;2023-07-13T15:07:12;0.70;;;0.70;;
4694;SDS011;2361;49.540;8.390;2023-07-13T15:09:42;0.80;;;0.80;;
4694;SDS011;2361;49.540;8.390;2023-07-13T15:12:09;2.47;;;0.77;;
4694;SDS011;2361;49.540;8.390;2023-07-13T15:14:36;0.90;;;0.90;;
4694;SDS011;2361;49.540;8.390;2023-07-13T15:17:03;0.73;;;0.70;;
4694;SDS011;2361;49.540;8.390;2023-07-13T15:19:35;1.50;;;0.83;;
4694;SDS011;2361;49.540;8.390;2023-07-13T15:22:02;0.73;;;0.73;;
4694;SDS011;2361;49.540;8.390;2023-07-13T15:24:31;2.20;;;1.10;;
4694;SDS011;2361;49.540;8.390;2023-07-13T15:26:58;1.10;;;1.00;;
4694;SDS011;2361;49.540;8.390;2023-07-13T15:29:25;0.97;;;0.80;;
4694;SDS011;2361;49.540;8.390;2023-07-13T15:31:52;1.33;;;0.80;;
4694;SDS011;2361;49.540;8.390;2023-07-13T15:34:20;0.70;;;0.70;;
4694;SDS011;2361;49.540;8.390;2023-07-13T15:36:52;1.00;;;1.00;;
4694;SDS011;2361;49.540;8.390;2023-07-13T15:39:19;1.00;;;0.77;;
4694;SDS011;2361;49.540;8.390;2023-07-13T15:41:46;0.80;;;0.80;;
4694;SDS011;2361;49.540;8.390;2023-07-13T15:44:22;0.80;;;0.80;;
4694;SDS011;2361;49.540;8.390;2023-07-13T15:46:57;0.90;;;0.70;;
4694;SDS011;2361;49.540;8.390;2023-07-13T15:49:26;0.90;;;0.90;;
4694;SDS011;2361;49.540;8.390;2023-07-13T15:51:53;0.83;;;0.83;;
4694;SDS011;2361;49.540;8.390;2023-07-13T15:54:21;0.90;;;0.90;;
4694;SDS011;2361;49.540;8.390;2023-07-13T15:56:54;2.33;;;0.87;;
4694;SDS011;2361;49.540;8.390;2023-07-13T15:59:27;1.63;;;0.70;;
4694;SDS011;2361;49.540;8.390;2023-07-13T16:01:54;0.90;;;0.90;;
4694;SDS011;2361;49.540;8.390;2023-07-13T16:04:21;0.90;;;0.90;;
4694;SDS011;2361;49.540;8.390;2023-07-13T16:06:48;0.73;;;0.73;;
4694;SDS011;2361;49.540;8.390;2023-07-13T16:09:20;0.80;;;0.77;;
4694;SDS011;2361;49.540;8.390;2023-07-13T16:11:49;0.83;;;0.83;;
4694;SDS011;2361;49.540;8.390;2023-07-13T16:14:17;1.80;;;0.90;;
4694;SDS011;2361;49.540;8.390;2023-07-13T16:16:46;0.73;;;0.73;;